Time;durP1;ratioP1;P1;durP2;ratioP2;P2;SDS_P1;SDS_P2;PMS_P1;PMS_P2;Temp;Humidity;BMP_temperature;BMP_pressure;BME280_temperature;BME280_humidity;BME280_pressure;Samples;Min_cycle;Max_cycle;Signal;HPM_P1;HPM_P2
2024/02/02 00:00:46;;;;;;;28.15;16.52;;;;;;;0.34;85.71;93559.63;5079168;28;20105;-69
2024/02/02 00:03:13;;;;;;;28.92;18.30;;;;;;;0.36;85.98;93552.69;5080917;28;20044;-69
2024/02/02 00:05:40;;;;;;;29.80;17.80;;;;;;;0.41;85.55;93548.94;5070588;28;20048;-69
2024/02/02 00:08:09;;;;;;;26.27;16.90;;;;;;;0.46;84.96;93539.22;5074306;28;20055;-69
2024/02/02 00:10:36;;;;;;;25.77;15.02;;;;;;;0.46;85.07;93544.28;5067664;28;20048;-70
2024/02/02 00:13:03;;;;;;;31.75;17.77;;;;;;;0.52;85.17;93541.19;5067636;28;20048;-70
2024/02/02 00:15:30;;;;;;;25.85;15.18;;;;;;;0.50;85.10;93538.78;5067832;28;20048;-70
2024/02/02 00:17:58;;;;;;;21.83;13.38;;;;;;;0.56;85.18;93540.00;5075735;28;20048;-70
2024/02/02 00:20:25;;;;;;;30.05;18.95;;;;;;;0.16;87.79;93554.47;5069661;28;20045;-70
2024/02/02 00:22:52;;;;;;;23.75;15.30;;;;;;;0.11;89.81;93542.28;5076591;28;20040;-70
2024/02/02 00:25:21;;;;;;;31.30;19.55;;;;;;;0.23;87.82;93534.53;5069230;28;20053;-69
2024/02/02 00:27:48;;;;;;;33.40;18.23;;;;;;;-0.07;90.58;93554.00;5071537;28;20086;-70
2024/02/02 00:30:15;;;;;;;35.47;18.52;;;;;;;0.10;89.91;93544.94;5071883;28;20044;-69
2024/02/02 00:32:44;;;;;;;35.20;21.33;;;;;;;-0.10;91.38;93542.44;5076934;28;20480;-69
2024/02/02 00:35:12;;;;;;;74.07;36.15;;;;;;;-0.20;94.26;93552.56;5070440;28;20052;-69
2024/02/02 00:37:39;;;;;;;37.40;23.25;;;;;;;-0.27;93.85;93544.72;5070742;28;20132;-69
2024/02/02 00:40:08;;;;;;;35.58;23.30;;;;;;;-0.38;95.68;93551.66;5075326;28;20109;-69
2024/02/02 00:42:37;;;;;;;40.13;24.63;;;;;;;-0.20;93.83;93562.66;5070690;28;20044;-70
2024/02/02 00:45:05;;;;;;;37.25;24.08;;;;;;;-0.23;94.94;93560.38;5073388;28;20567;-69
2024/02/02 00:47:32;;;;;;;36.58;24.10;;;;;;;-0.19;94.76;93558.41;5073826;28;20045;-70
2024/02/02 00:49:59;;;;;;;35.72;22.13;;;;;;;-0.09;94.51;93554.13;5071179;28;20385;-69
2024/02/02 00:52:26;;;;;;;32.47;19.88;;;;;;;0.02;94.28;93547.31;5072701;28;20470;-70
2024/02/02 00:54:54;;;;;;;33.35;21.83;;;;;;;0.09;92.58;93554.22;5074995;28;20053;-70
2024/02/02 00:57:21;;;;;;;38.88;24.25;;;;;;;0.24;90.05;93559.63;5071932;28;20131;-72
2024/02/02 00:59:50;;;;;;;45.38;26.95;;;;;;;0.26;90.05;93555.25;5076309;28;20489;-69
2024/02/02 01:02:18;;;;;;;47.15;26.75;;;;;;;0.32;91.39;93560.69;5078278;28;20040;-69
2024/02/02 01:04:45;;;;;;;41.95;23.33;;;;;;;0.38;90.61;93555.09;5071384;28;20161;-70
2024/02/02 01:07:16;;;;;;;45.85;25.65;;;;;;;0.50;88.69;93545.56;5082876;28;20051;-69
2024/02/02 01:09:43;;;;;;;43.53;26.27;;;;;;;0.47;90.28;93539.06;5078475;28;20044;-70
2024/02/02 01:12:11;;;;;;;46.97;27.10;;;;;;;0.56;88.69;93537.47;5072160;28;20082;-69
2024/02/02 01:14:38;;;;;;;61.75;35.97;;;;;;;0.63;88.83;93535.94;5073781;28;20475;-69
2024/02/02 01:17:07;;;;;;;50.08;31.27;;;;;;;0.66;89.13;93538.19;5073731;28;20467;-70
2024/02/02 01:19:35;;;;;;;43.03;27.63;;;;;;;0.67;89.03;93536.47;5073746;28;20066;-69
2024/02/02 01:22:02;;;;;;;37.70;22.98;;;;;;;0.72;88.23;93536.84;5078784;28;20078;-69
2024/02/02 01:24:29;;;;;;;37.47;22.98;;;;;;;0.73;88.78;93538.44;5070387;28;20492;-69
2024/02/02 01:26:56;;;;;;;38.10;23.52;;;;;;;0.73;87.61;93527.50;5073437;28;20056;-69
2024/02/02 01:29:25;;;;;;;31.83;20.85;;;;;;;0.84;87.64;93519.75;5077979;28;20048;-69
2024/02/02 01:31:52;;;;;;;28.65;17.33;;;;;;;0.83;87.84;93525.72;5072976;28;20049;-69
2024/02/02 01:34:22;;;;;;;28.08;16.67;;;;;;;0.86;87.16;93530.50;5077294;28;20455;-68
2024/02/02 01:36:49;;;;;;;19.77;12.93;;;;;;;0.90;87.42;93524.25;5072816;28;20078;-69
2024/02/02 01:39:16;;;;;;;21.85;13.35;;;;;;;0.93;87.14;93528.22;5071640;28;20086;-69
2024/02/02 01:41:45;;;;;;;21.05;13.85;;;;;;;0.99;87.06;93522.59;5075129;28;20050;-69
2024/02/02 01:44:12;;;;;;;20.48;13.38;;;;;;;1.02;87.72;93521.50;5080188;28;20052;-68
2024/02/02 01:46:39;;;;;;;21.30;14.20;;;;;;;1.07;85.97;93532.00;5073793;28;20050;-69
2024/02/02 01:49:06;;;;;;;21.30;13.60;;;;;;;1.04;87.26;93512.03;5072850;28;20082;-69
2024/02/02 01:51:35;;;;;;;22.70;14.73;;;;;;;0.72;91.29;93533.50;5072976;28;20098;-69
2024/02/02 01:54:02;;;;;;;46.75;25.15;;;;;;;0.49;95.18;93532.16;5074544;28;20048;-68
2024/02/02 01:56:29;;;;;;;45.33;24.63;;;;;;;0.64;92.53;93529.97;5071003;28;20097;-68
2024/02/02 01:58:56;;;;;;;40.38;22.63;;;;;;;0.74;92.56;93527.38;5070175;28;20048;-69
2024/02/02 02:01:23;;;;;;;46.13;26.05;;;;;;;0.69;93.88;93533.81;5076224;28;20090;-69
2024/02/02 02:03:51;;;;;;;41.97;25.45;;;;;;;0.82;91.92;93533.47;5073576;28;20048;-69
2024/02/02 02:06:18;;;;;;;45.03;25.38;;;;;;;0.91;90.96;93530.88;5071207;28;20507;-69
2024/02/02 02:08:47;;;;;;;42.25;24.13;;;;;;;0.90;92.14;93515.84;5072603;28;20048;-69
2024/02/02 02:11:14;;;;;;;40.00;24.15;;;;;;;0.98;89.68;93525.25;5071567;28;20106;-69
2024/02/02 02:13:42;;;;;;;39.70;23.10;;;;;;;1.01;90.06;93535.06;5070605;28;20040;-68
2024/02/02 02:16:09;;;;;;;40.63;23.13;;;;;;;1.09;89.27;93529.28;5075821;28;20048;-70
2024/02/02 02:18:36;;;;;;;55.20;31.83;;;;;;;0.61;96.10;93532.75;5073450;28;20063;-70
2024/02/02 02:21:23;;;;;;;50.20;27.27;;;;;;;0.91;92.25;93523.28;5070686;28;20049;-70
2024/02/02 02:23:50;;;;;;;49.22;27.17;;;;;;;1.02;90.93;93529.09;5073981;28;20749;-70
2024/02/02 02:26:17;;;;;;;46.58;28.83;;;;;;;1.11;90.34;93527.44;5074549;28;20516;-70
2024/02/02 02:28:45;;;;;;;38.08;24.15;;;;;;;1.11;91.24;93519.84;5077461;28;20514;-70
2024/02/02 02:31:12;;;;;;;42.88;25.75;;;;;;;1.16;92.45;93525.28;5073963;28;20059;-69
2024/02/02 02:33:40;;;;;;;40.05;24.10;;;;;;;1.15;91.78;93527.00;5074059;28;20308;-69
2024/02/02 02:36:09;;;;;;;37.22;21.15;;;;;;;1.26;91.53;93526.00;5071575;28;20059;-69
2024/02/02 02:38:36;;;;;;;38.13;22.88;;;;;;;1.28;91.40;93544.34;5072496;28;20505;-69
2024/02/02 02:41:04;;;;;;;108.10;51.78;;;;;;;1.38;91.21;93536.69;5071603;28;20868;-69
2024/02/02 02:43:31;;;;;;;44.88;25.77;;;;;;;1.44;90.36;93540.38;5068991;28;20045;-69
2024/02/02 02:45:58;;;;;;;33.42;19.98;;;;;;;1.46;90.43;93538.50;5070645;28;20048;-69
2024/02/02 02:48:26;;;;;;;37.75;22.08;;;;;;;1.59;89.60;93554.09;5074288;28;20059;-69
2024/02/02 02:50:53;;;;;;;33.58;19.40;;;;;;;1.64;88.49;93545.28;5069732;28;20036;-69
2024/02/02 02:53:22;;;;;;;37.03;22.02;;;;;;;1.67;88.35;93560.19;5070233;28;20048;-70
2024/02/02 02:55:49;;;;;;;34.95;19.95;;;;;;;1.68;88.56;93552.47;5080975;28;20047;-69
2024/02/02 02:58:16;;;;;;;35.78;19.25;;;;;;;1.55;87.63;93519.09;5073279;28;20048;-69
2024/02/02 03:00:44;;;;;;;28.02;17.95;;;;;;;1.79;88.52;93553.94;5071100;28;20043;-70
2024/02/02 03:03:11;;;;;;;89.55;38.83;;;;;;;1.77;87.08;93553.31;5074430;28;20613;-70
2024/02/02 03:05:39;;;;;;;69.68;33.03;;;;;;;1.79;87.69;93546.34;5081385;28;20578;-70
2024/02/02 03:08:06;;;;;;;53.58;29.30;;;;;;;1.73;88.10;93547.72;5069621;28;20110;-70
2024/02/02 03:10:35;;;;;;;92.18;43.00;;;;;;;1.46;93.37;93551.16;5069140;28;20780;-70
2024/02/02 03:13:03;;;;;;;138.95;55.00;;;;;;;1.64;90.87;93557.94;5074651;28;20131;-70
2024/02/02 03:15:31;;;;;;;177.48;68.68;;;;;;;1.45;93.31;93564.75;5076770;28;20510;-69
2024/02/02 03:17:58;;;;;;;337.55;117.50;;;;;;;1.58;92.85;93561.88;5069197;28;20052;-69
2024/02/02 03:20:27;;;;;;;266.95;93.65;;;;;;;1.63;92.03;93557.16;5073503;28;21031;-69
2024/02/02 03:22:54;;;;;;;236.57;87.47;;;;;;;1.68;90.91;93557.53;5079199;28;20127;-69
2024/02/02 03:25:21;;;;;;;109.47;45.90;;;;;;;1.73;91.78;93562.13;5075598;28;20050;-69
2024/02/02 03:27:50;;;;;;;96.40;41.50;;;;;;;1.80;90.40;93559.81;5074304;28;20764;-70
2024/02/02 03:30:17;;;;;;;47.22;26.15;;;;;;;1.80;91.73;93558.06;5070311;28;20044;-70
2024/02/02 03:32:45;;;;;;;51.95;27.80;;;;;;;1.85;89.08;93555.91;5068641;28;20048;-69
2024/02/02 03:35:12;;;;;;;127.78;48.70;;;;;;;1.87;89.49;93555.75;5075833;28;20155;-70
2024/02/02 03:37:39;;;;;;;36.05;20.42;;;;;;;1.91;90.70;93548.66;5080702;28;20038;-70
2024/02/02 03:40:08;;;;;;;46.85;27.65;;;;;;;1.95;89.78;93558.31;5070842;28;20098;-70
2024/02/02 03:42:35;;;;;;;74.60;34.05;;;;;;;2.03;87.43;93550.00;5070374;28;20059;-70
2024/02/02 03:45:05;;;;;;;253.73;83.30;;;;;;;2.09;86.31;93551.16;5071796;28;20553;-70
2024/02/02 03:47:32;;;;;;;65.05;31.83;;;;;;;2.09;86.53;93561.28;5070799;28;20044;-70
2024/02/02 03:49:59;;;;;;;40.88;23.55;;;;;;;2.12;87.25;93571.09;5069693;28;20052;-70
2024/02/02 03:52:27;;;;;;;42.38;23.48;;;;;;;2.15;88.27;93565.75;5067721;28;20048;-70
2024/02/02 03:54:54;;;;;;;47.20;27.45;;;;;;;2.11;88.46;93567.81;5068746;28;20044;-70
2024/02/02 03:57:21;;;;;;;62.20;32.40;;;;;;;2.14;87.51;93577.63;5073464;28;20044;-70
2024/02/02 03:59:48;;;;;;;64.82;33.47;;;;;;;2.16;86.55;93576.69;5076047;28;20117;-70
2024/02/02 04:02:20;;;;;;;93.43;38.50;;;;;;;2.19;86.88;93582.25;5070379;28;20131;-70
2024/02/02 04:04:48;;;;;;;57.72;31.15;;;;;;;2.11;86.14;93582.19;5066386;28;20127;-70
2024/02/02 04:07:18;;;;;;;144.13;59.50;;;;;;;2.13;87.06;93593.78;5072924;28;20442;-70
2024/02/02 04:09:45;;;;;;;77.07;38.75;;;;;;;1.89;90.48;93565.75;5072044;28;20053;-70
2024/02/02 04:12:12;;;;;;;52.35;29.35;;;;;;;1.99;92.22;93590.03;5071931;28;20056;-70
2024/02/02 04:14:42;;;;;;;50.80;29.17;;;;;;;1.92;91.20;93578.91;5075021;28;20043;-70
2024/02/02 04:17:09;;;;;;;55.22;28.80;;;;;;;1.93;90.30;93589.81;5068178;28;20059;-70
2024/02/02 04:19:38;;;;;;;69.60;34.92;;;;;;;1.92;89.91;93594.09;5067300;28;20097;-69
2024/02/02 04:22:05;;;;;;;69.97;36.03;;;;;;;1.99;91.06;93592.56;5072118;28;20056;-69
2024/02/02 04:24:32;;;;;;;62.08;32.15;;;;;;;2.05;89.75;93593.72;5068153;28;20424;-70
2024/02/02 04:26:59;;;;;;;56.75;30.50;;;;;;;1.98;89.89;93583.38;5072180;28;20060;-69
2024/02/02 04:29:26;;;;;;;45.20;26.92;;;;;;;2.09;90.21;93594.22;5073653;28;20511;-70
2024/02/02 04:31:53;;;;;;;44.97;27.50;;;;;;;2.14;90.42;93587.75;5073009;28;20394;-70
2024/02/02 04:34:20;;;;;;;49.90;28.00;;;;;;;1.98;89.18;93565.66;5073723;28;20094;-69
2024/02/02 04:36:49;;;;;;;47.70;28.08;;;;;;;1.86;87.77;93521.22;5068857;28;20049;-70
2024/02/02 04:39:16;;;;;;;38.67;22.50;;;;;;;2.25;87.54;93596.06;5069271;28;20094;-69
2024/02/02 04:41:43;;;;;;;38.63;22.23;;;;;;;2.25;88.73;93586.72;5071560;28;20454;-70
2024/02/02 04:44:10;;;;;;;39.13;23.02;;;;;;;2.28;88.06;93588.19;5068204;28;20052;-70
2024/02/02 04:46:37;;;;;;;57.72;32.80;;;;;;;1.77;88.00;93507.72;5070863;28;20102;-70
2024/02/02 04:49:04;;;;;;;91.18;50.58;;;;;;;2.34;88.13;93594.38;5066464;28;20071;-70
2024/02/02 04:51:32;;;;;;;74.13;42.80;;;;;;;2.33;88.10;93602.94;5066565;28;20044;-70
2024/02/02 04:54:00;;;;;;;76.53;41.30;;;;;;;2.31;86.89;93589.63;5077627;28;20076;-70
2024/02/02 04:56:27;;;;;;;60.95;36.63;;;;;;;2.35;88.65;93596.78;5071075;28;20052;-70
2024/02/02 04:58:55;;;;;;;41.47;23.38;;;;;;;2.10;92.16;93600.88;5069834;28;20041;-70
2024/02/02 05:01:22;;;;;;;27.63;16.73;;;;;;;2.06;92.03;93597.03;5070777;28;20412;-70
2024/02/02 05:03:50;;;;;;;30.00;18.20;;;;;;;2.27;93.03;93617.78;5069859;28;20090;-70
2024/02/02 05:06:17;;;;;;;131.90;59.90;;;;;;;2.36;91.66;93620.41;5075878;28;20385;-70
2024/02/02 05:08:45;;;;;;;78.25;42.50;;;;;;;2.22;90.96;93609.06;5068909;28;20497;-70
2024/02/02 05:11:13;;;;;;;50.03;28.65;;;;;;;1.97;96.32;93608.84;5073137;28;20110;-70
2024/02/02 05:13:41;;;;;;;40.35;23.02;;;;;;;1.78;98.65;93580.22;5071347;28;20052;-70
2024/02/02 05:16:09;;;;;;;32.28;19.42;;;;;;;2.06;100.00;93617.31;5075760;28;20138;-69
2024/02/02 05:18:36;;;;;;;33.65;18.80;;;;;;;2.04;100.00;93624.28;5078930;28;20044;-69
2024/02/02 05:21:03;;;;;;;36.75;22.08;;;;;;;1.80;100.00;93608.72;5067434;28;20048;-70
2024/02/02 05:23:30;;;;;;;34.22;22.77;;;;;;;1.98;100.00;93623.13;5066170;28;20417;-69
2024/02/02 05:25:58;;;;;;;42.95;24.25;;;;;;;1.82;100.00;93606.88;5073221;28;20107;-69
2024/02/02 05:28:26;;;;;;;37.83;23.25;;;;;;;1.77;100.00;93638.63;5074539;28;20412;-70
2024/02/02 05:30:53;;;;;;;43.00;31.58;;;;;;;1.82;100.00;93637.25;5069062;28;20044;-70
2024/02/02 05:33:21;;;;;;;51.72;35.00;;;;;;;1.89;100.00;93642.53;5071768;28;20052;-70
2024/02/02 05:35:48;;;;;;;34.72;22.33;;;;;;;1.76;100.00;93647.94;5074698;28;20040;-70
2024/02/02 05:38:15;;;;;;;37.30;22.35;;;;;;;1.56;100.00;93632.91;5072091;28;20397;-70
2024/02/02 05:40:52;;;;;;;38.67;23.63;;;;;;;1.70;100.00;93654.41;5070524;28;20044;-70
2024/02/02 05:43:19;;;;;;;50.53;27.88;;;;;;;1.67;100.00;93649.59;5078812;28;20150;-70
2024/02/02 05:45:50;;;;;;;44.17;26.63;;;;;;;1.58;100.00;93645.44;5072666;28;20851;-70
2024/02/02 05:48:17;;;;;;;51.20;30.02;;;;;;;1.40;100.00;93622.63;5075919;28;20048;-70
2024/02/02 05:50:45;;;;;;;44.05;30.05;;;;;;;1.65;100.00;93643.09;5072053;28;20420;-70
2024/02/02 05:53:12;;;;;;;50.47;33.55;;;;;;;1.63;100.00;93629.78;5076236;28;20058;-71
2024/02/02 05:55:39;;;;;;;44.92;30.10;;;;;;;1.71;100.00;93668.66;5074839;28;20424;-71
2024/02/02 05:58:07;;;;;;;41.38;27.10;;;;;;;1.78;100.00;93663.81;5070713;28;20102;-71
2024/02/02 06:00:39;;;;;;;59.67;36.28;;;;;;;1.93;100.00;93673.44;5082561;28;20493;-71
2024/02/02 06:03:07;;;;;;;38.03;25.52;;;;;;;1.68;100.00;93655.47;5069745;28;20048;-70
2024/02/02 06:05:35;;;;;;;35.17;23.88;;;;;;;1.81;100.00;93678.72;5072189;28;20055;-70
2024/02/02 06:08:06;;;;;;;38.92;24.73;;;;;;;1.89;100.00;93680.53;5070985;28;20063;-71
2024/02/02 06:10:34;;;;;;;39.15;24.98;;;;;;;1.77;100.00;93671.53;5075061;28;20131;-71
2024/02/02 06:13:05;;;;;;;38.70;26.95;;;;;;;1.79;100.00;93674.72;5030973;28;20060;-71
2024/02/02 06:15:32;;;;;;;58.97;36.40;;;;;;;1.86;100.00;93694.28;5030763;28;20069;-71
2024/02/02 06:17:59;;;;;;;36.45;25.48;;;;;;;1.93;100.00;93694.50;5035947;28;20050;-71
2024/02/02 06:20:27;;;;;;;66.88;37.92;;;;;;;1.77;100.00;93684.22;5035557;28;20631;-70
2024/02/02 06:22:54;;;;;;;37.97;26.95;;;;;;;1.71;100.00;93663.59;5039993;28;20091;-71
2024/02/02 06:25:24;;;;;;;40.22;29.15;;;;;;;1.65;100.00;93671.75;5030750;28;20513;-70
2024/02/02 06:27:51;;;;;;;36.75;26.10;;;;;;;1.81;100.00;93696.44;5035808;28;20053;-70
2024/02/02 06:30:18;;;;;;;77.78;43.17;;;;;;;1.86;100.00;93689.22;5034915;28;20065;-70
2024/02/02 06:32:49;;;;;;;72.25;39.83;;;;;;;2.10;100.00;93705.59;5030012;28;20154;-70
2024/02/02 06:35:15;;;;;;;37.88;26.95;;;;;;;1.95;100.00;93694.38;5035515;28;20429;-70
2024/02/02 06:37:43;;;;;;;31.95;22.98;;;;;;;2.30;100.00;93709.72;5030701;28;20140;-71
2024/02/02 06:40:11;;;;;;;36.40;25.83;;;;;;;2.35;100.00;93710.84;5033161;28;21234;-71
2024/02/02 06:42:43;;;;;;;31.23;23.58;;;;;;;2.31;100.00;93712.09;5033503;28;20049;-71
2024/02/02 06:45:10;;;;;;;33.45;24.20;;;;;;;2.43;100.00;93716.91;5035853;28;20049;-71
2024/02/02 06:47:43;;;;;;;33.80;24.33;;;;;;;2.48;100.00;93705.41;5031564;28;20136;-71
2024/02/02 06:50:14;;;;;;;40.30;30.85;;;;;;;2.53;100.00;93700.69;5035368;28;20049;-71
2024/02/02 06:52:43;;;;;;;41.03;29.88;;;;;;;2.60;100.00;93711.03;5033516;28;20099;-71
2024/02/02 06:55:10;;;;;;;36.30;26.05;;;;;;;2.59;100.00;93689.16;5030295;28;20041;-71
2024/02/02 06:57:37;;;;;;;33.97;24.70;;;;;;;2.80;100.00;93715.91;5032864;28;20053;-72
2024/02/02 07:00:04;;;;;;;33.97;25.58;;;;;;;2.86;100.00;93719.63;5037241;28;20055;-71
2024/02/02 07:02:32;;;;;;;42.08;28.63;;;;;;;2.93;100.00;93711.22;5030547;28;20050;-71
2024/02/02 07:05:00;;;;;;;50.25;36.17;;;;;;;2.93;100.00;93711.22;5030590;28;20123;-71
2024/02/02 07:07:27;;;;;;;41.78;31.73;;;;;;;2.98;100.00;93720.94;5032731;28;20144;-71
2024/02/02 07:09:57;;;;;;;93.68;60.80;;;;;;;2.99;100.00;93707.31;5031164;28;20049;-72
2024/02/02 07:12:53;;;;;;;71.45;46.65;;;;;;;3.11;100.00;93718.00;5061175;28;20505;-72
2024/02/02 07:15:21;;;;;;;49.90;32.72;;;;;;;3.08;100.00;93718.31;5070325;28;20143;-71
2024/02/02 07:17:50;;;;;;;53.50;32.83;;;;;;;3.17;100.00;93714.06;5070936;28;20131;-71
2024/02/02 07:20:56;;;;;;;38.83;28.23;;;;;;;2.78;100.00;93736.34;5068980;28;20051;-71
2024/02/02 07:23:34;;;;;;;49.83;29.92;;;;;;;2.92;100.00;93739.31;5071664;28;20044;-71
2024/02/02 07:26:05;;;;;;;43.65;30.17;;;;;;;2.93;100.00;93739.16;5069756;28;20056;-71
2024/02/02 07:28:36;;;;;;;35.20;24.20;;;;;;;2.76;100.00;93729.84;5075195;28;20563;-71
2024/02/02 07:31:04;;;;;;;28.05;20.38;;;;;;;2.30;100.00;93691.97;5074663;28;20052;-71
2024/02/02 07:33:36;;;;;;;34.97;25.13;;;;;;;2.45;100.00;93725.97;5071307;28;20049;-71
2024/02/02 07:36:04;;;;;;;32.00;23.40;;;;;;;2.48;100.00;93733.31;5070365;28;20044;-71
2024/02/02 07:38:46;;;;;;;38.88;26.60;;;;;;;2.66;100.00;93735.81;5079714;28;20510;-71
2024/02/02 07:41:16;;;;;;;34.15;23.67;;;;;;;2.77;100.00;93739.84;5072916;28;20048;-71
2024/02/02 07:43:43;;;;;;;35.03;24.20;;;;;;;2.90;100.00;93736.13;5072798;28;20045;-71
2024/02/02 07:46:11;;;;;;;31.60;23.17;;;;;;;2.82;100.00;93741.16;5068793;28;20563;-71
2024/02/02 07:48:39;;;;;;;37.85;24.80;;;;;;;2.85;100.00;93731.50;5070123;28;20060;-71
2024/02/02 07:51:07;;;;;;;51.75;31.45;;;;;;;2.63;100.00;93725.97;5071121;28;20120;-71
2024/02/02 07:53:34;;;;;;;35.85;23.85;;;;;;;2.73;100.00;93720.00;5070250;28;20056;-70
2024/02/02 07:56:01;;;;;;;38.45;25.83;;;;;;;2.87;100.00;93731.34;5070502;28;20048;-71
2024/02/02 07:58:30;;;;;;;46.28;29.35;;;;;;;2.68;100.00;93733.13;5070973;28;20188;-70
2024/02/02 08:00:58;;;;;;;48.42;30.25;;;;;;;2.74;100.00;93734.28;5071171;28;20048;-70
2024/02/02 08:03:25;;;;;;;32.85;23.35;;;;;;;2.51;100.00;93733.00;5070810;28;20151;-70
2024/02/02 08:05:53;;;;;;;44.33;27.73;;;;;;;2.62;100.00;93723.56;5070606;28;20552;-70
2024/02/02 08:08:20;;;;;;;39.90;25.73;;;;;;;2.67;100.00;93729.00;5069905;28;20083;-70
2024/02/02 08:10:47;;;;;;;29.10;20.00;;;;;;;2.51;100.00;93729.69;5069963;28;20116;-70
2024/02/02 08:13:15;;;;;;;34.15;22.05;;;;;;;2.77;100.00;93732.25;5076183;28;20040;-70
2024/02/02 08:15:44;;;;;;;35.58;23.95;;;;;;;2.84;100.00;93734.19;5070362;28;20044;-71
2024/02/02 08:18:12;;;;;;;29.20;19.13;;;;;;;2.90;100.00;93734.38;5067497;28;20044;-70
2024/02/02 08:20:39;;;;;;;24.73;17.83;;;;;;;2.73;100.00;93708.09;5074895;28;20068;-70
2024/02/02 08:23:07;;;;;;;22.20;15.88;;;;;;;2.68;100.00;93740.72;5072960;28;20167;-70
2024/02/02 08:25:34;;;;;;;33.58;21.83;;;;;;;2.94;100.00;93735.69;5066704;28;20055;-70
2024/02/02 08:28:01;;;;;;;21.23;14.07;;;;;;;2.63;100.00;93738.63;5069650;28;20523;-70
2024/02/02 08:30:28;;;;;;;18.55;13.43;;;;;;;2.78;100.00;93745.72;5070746;28;20138;-70
2024/02/02 08:32:57;;;;;;;14.27;10.32;;;;;;;2.60;100.00;93746.53;5067699;28;20155;-70
2024/02/02 08:35:26;;;;;;;12.15;8.85;;;;;;;2.59;98.73;93739.88;5069503;28;20070;-70
2024/02/02 08:37:56;;;;;;;11.85;8.55;;;;;;;2.70;94.66;93751.53;5068417;28;20466;-70
2024/02/02 08:40:28;;;;;;;8.50;6.72;;;;;;;2.70;89.13;93727.91;5068729;28;20135;-70
2024/02/02 08:42:55;;;;;;;10.07;6.72;;;;;;;2.83;86.27;93753.69;5068342;28;20127;-70
2024/02/02 08:46:02;;;;;;;10.30;7.55;;;;;;;3.03;85.00;93754.28;5069952;28;20500;-70
2024/02/02 08:48:41;;;;;;;12.65;7.47;;;;;;;3.20;85.76;93749.31;5069907;28;20059;-69
2024/02/02 08:51:46;;;;;;;8.27;6.60;;;;;;;3.27;82.50;93759.63;5067787;28;20048;-69
2024/02/02 08:54:33;;;;;;;;;;;;;;;3.28;80.28;93761.25;5070046;28;20040;-69
2024/02/02 08:57:30;;;;;;;9.35;6.32;;;;;;;3.17;78.85;93768.19;5074581;28;19920;-69
2024/02/02 09:00:04;;;;;;;9.93;6.80;;;;;;;3.24;78.14;93767.56;5070088;28;20052;-69
2024/02/02 09:02:51;;;;;;;9.68;6.30;;;;;;;2.84;76.63;93726.56;5068121;28;20052;-69
2024/02/02 09:05:22;;;;;;;9.27;6.45;;;;;;;3.12;76.80;93749.25;5068918;28;20484;-69
2024/02/02 09:07:50;;;;;;;11.98;7.25;;;;;;;3.29;77.45;93763.63;5069762;28;20044;-69
2024/02/02 09:10:53;;;;;;;10.25;6.95;;;;;;;3.47;79.04;93762.75;5073361;28;20054;-69
2024/02/02 09:13:21;;;;;;;10.52;6.97;;;;;;;3.40;78.64;93756.69;5070074;28;20127;-69
2024/02/02 09:15:48;;;;;;;10.27;7.03;;;;;;;3.48;79.16;93775.31;5070639;28;20072;-69
2024/02/02 09:18:27;;;;;;;14.25;8.73;;;;;;;3.63;79.23;93767.13;5073197;28;20074;-69
2024/02/02 09:20:56;;;;;;;12.18;7.57;;;;;;;3.56;78.61;93774.53;5075036;28;20131;-69
2024/02/02 09:23:23;;;;;;;14.80;8.85;;;;;;;3.58;79.82;93765.03;5074356;28;20058;-69
2024/02/02 09:25:50;;;;;;;11.27;7.70;;;;;;;3.53;78.38;93768.97;5071710;28;20044;-70
2024/02/02 09:28:39;;;;;;;13.18;8.75;;;;;;;3.46;80.74;93759.44;5081221;28;20135;-69
2024/02/02 09:31:07;;;;;;;12.57;8.38;;;;;;;3.56;80.56;93768.69;5073712;28;20054;-70
2024/02/02 09:33:49;;;;;;;11.73;7.82;;;;;;;3.41;80.91;93776.06;5073873;28;20048;-70
2024/02/02 09:36:19;;;;;;;13.18;8.88;;;;;;;3.52;80.38;93770.72;5072461;28;20072;-70
2024/02/02 09:38:57;;;;;;;12.48;8.75;;;;;;;3.61;79.60;93767.28;5080827;28;20051;-70
2024/02/02 09:41:49;;;;;;;12.60;9.05;;;;;;;3.79;80.89;93773.22;5081517;28;20037;-70
2024/02/02 09:44:40;;;;;;;12.25;8.35;;;;;;;3.20;82.20;93754.38;5074394;28;20046;-70
2024/02/02 09:47:22;;;;;;;13.57;9.00;;;;;;;3.52;82.54;93764.84;5068029;28;20493;-70
2024/02/02 09:49:58;;;;;;;14.60;9.05;;;;;;;3.47;82.71;93761.03;5076473;28;20123;-71
2024/02/02 09:52:37;;;;;;;15.63;9.80;;;;;;;3.20;83.86;93767.09;5078253;28;20863;-70
2024/02/02 09:55:16;;;;;;;21.55;11.52;;;;;;;3.32;83.55;93754.91;5077164;28;20075;-71
2024/02/02 09:57:53;;;;;;;20.35;10.68;;;;;;;3.05;83.55;93683.88;5071158;28;20831;-71
2024/02/02 10:00:30;;;;;;;17.38;10.35;;;;;;;3.57;83.65;93762.66;5075748;28;20055;-71
2024/02/02 10:03:14;;;;;;;17.20;10.55;;;;;;;3.61;82.14;93769.00;5074280;28;20152;-71
2024/02/02 10:05:53;;;;;;;17.17;10.75;;;;;;;3.55;82.71;93757.72;5076856;28;20068;-71
2024/02/02 10:08:42;;;;;;;13.65;8.30;;;;;;;3.63;81.75;93756.97;5070959;28;20041;-70
2024/02/02 10:11:26;;;;;;;15.18;9.10;;;;;;;3.77;81.49;93753.03;5071905;28;20088;-70
2024/02/02 10:14:06;;;;;;;15.35;9.23;;;;;;;3.61;81.93;93746.13;5071436;28;20163;-71
2024/02/02 10:16:40;;;;;;;14.10;8.70;;;;;;;3.62;81.70;93747.75;5077018;28;20131;-70
2024/02/02 10:19:56;;;;;;;15.70;10.95;;;;;;;3.79;81.24;93737.66;5077244;28;20146;-71
2024/02/02 10:22:41;;;;;;;11.93;8.23;;;;;;;3.47;81.41;93717.03;5072962;28;20063;-70
2024/02/02 10:25:26;;;;;;;10.45;7.57;;;;;;;3.55;81.91;93739.94;5073713;28;20139;-70
2024/02/02 10:28:07;;;;;;;15.50;9.40;;;;;;;3.41;82.69;93741.31;5074036;28;20123;-70
2024/02/02 10:30:49;;;;;;;15.50;8.85;;;;;;;3.60;83.57;93742.00;5070157;28;20049;-71
2024/02/02 10:33:33;;;;;;;14.48;8.50;;;;;;;3.70;82.15;93735.06;5070923;28;20507;-70
2024/02/02 10:36:10;;;;;;;13.52;9.18;;;;;;;3.67;82.51;93743.00;5079048;28;20044;-71
2024/02/02 10:38:52;;;;;;;17.45;9.63;;;;;;;3.47;82.89;93737.34;5076186;28;20182;-70
2024/02/02 10:41:35;;;;;;;11.30;7.63;;;;;;;3.58;84.09;93738.84;5069868;28;20048;-70
2024/02/02 10:44:15;;;;;;;14.50;8.25;;;;;;;3.48;84.36;93744.81;5072681;28;20049;-70
2024/02/02 10:46:50;;;;;;;14.70;9.40;;;;;;;3.53;83.52;93746.13;5078231;28;20052;-71
2024/02/02 10:49:34;;;;;;;16.70;9.25;;;;;;;3.74;84.47;93738.09;5069158;28;20489;-70
2024/02/02 10:52:09;;;;;;;18.75;8.88;;;;;;;3.56;84.04;93728.81;5074299;28;20468;-70
2024/02/02 10:54:48;;;;;;;14.48;8.05;;;;;;;3.48;84.57;93728.81;5071511;28;20989;-70
2024/02/02 10:57:26;;;;;;;13.85;8.07;;;;;;;3.64;85.04;93727.25;5070061;28;20476;-70
2024/02/02 11:00:07;;;;;;;13.18;8.85;;;;;;;3.64;85.33;93728.06;5073340;28;20055;-70
2024/02/02 11:03:00;;;;;;;13.23;7.95;;;;;;;3.46;84.87;93718.78;5076212;28;20048;-70
2024/02/02 11:05:36;;;;;;;15.85;8.02;;;;;;;3.46;85.71;93715.44;5076729;28;20056;-70
2024/02/02 11:08:06;;;;;;;14.60;8.30;;;;;;;3.71;84.87;93733.34;5070614;28;20083;-70
2024/02/02 11:10:42;;;;;;;11.75;8.32;;;;;;;3.66;84.54;93733.78;5071077;28;20052;-70
2024/02/02 11:13:23;;;;;;;11.93;8.10;;;;;;;3.67;84.57;93734.59;5074376;28;20076;-70
2024/02/02 11:16:00;;;;;;;12.07;7.68;;;;;;;3.69;84.42;93738.56;5072347;28;20127;-70
2024/02/02 11:18:46;;;;;;;10.15;7.72;;;;;;;3.80;84.63;93729.06;5070232;28;20052;-70
2024/02/02 11:21:32;;;;;;;10.98;7.70;;;;;;;3.88;83.17;93722.25;5072881;28;20468;-70
2024/02/02 11:24:03;;;;;;;12.00;8.25;;;;;;;4.22;83.11;93732.47;5069479;28;20407;-69
2024/02/02 11:26:38;;;;;;;12.80;8.52;;;;;;;4.33;82.59;93731.38;5069174;28;20127;-69
2024/02/02 11:29:16;;;;;;;12.63;7.93;;;;;;;4.25;82.98;93732.97;5070025;28;20127;-69
2024/02/02 11:31:51;;;;;;;10.82;8.23;;;;;;;4.15;82.56;93734.84;5069283;28;20052;-70
2024/02/02 11:34:30;;;;;;;15.00;10.38;;;;;;;4.13;83.01;93731.69;5072055;28;20408;-69
2024/02/02 11:37:07;;;;;;;12.20;8.23;;;;;;;3.70;84.33;93724.13;5072851;28;20052;-69
2024/02/02 11:39:53;;;;;;;14.93;10.02;;;;;;;3.81;83.56;93728.09;5070655;28;20052;-70
2024/02/02 11:42:22;;;;;;;10.65;7.38;;;;;;;3.48;84.08;93703.41;5068511;28;20127;-69